Skip Navigation Links
NOAA logo - Click to go to the NOAA homepage
NOAA's National Weather Service
Alaska Aviation Weather Unit
  NWS logo - Click to go to the NWS homepage
Left Navbar Graphic     09 AKDT = 17 GMT

   
NOAA is celebrating 200 years of science, service, and stewardship. Visit the NOAA 200th celebration Web site to learn more.
USA.gov is the U.S. Government's official Web portal to all Federal, state and local government Web resources and services.
Facebook
NWS on Facebook

Important Change Regarding the AAWU Web Presence

 

Over the last several months, the AAWU has been working to navigate its webpages to a nationally supported server. Security, as well as other needs, have necessitated the change.  In the process, we have made an effort to enhance the functionality of our website, as well as some of our products. As of June 20, 2017, aawu.arh.noaa.gov will be discontinued. The new AAWU web address is weather.gov/aawu. It is now live and will run in-parallel with the old site until it is discontinued. Please send any feedback or questions regarding the new webpages to nws.ar.aawu.webauthors@noaa.gov.  Thank you for your patience during this time of transition.
AAWU Home :: Display TAF Add Bookmark
TAF PAIL 271141Z 2712/2812 09012G20KT P6SM VCSH SCT025 BKN035 OVC050
     FM271900 10015G25KT P6SM SCT035 BKN050
     FM280500 09008G18KT P6SM -SHRA SCT025 BKN035 OVC050
     FM280800 06006KT P6SM -RA SCT025 OVC035=
METAR PAIL 271153Z AUTO 08011KT 10SM BKN030 BKN038 OVC065 04/02 A3002
     RMK AO2 SLP167 60000 70001 T00440022 10056 20044 53000
     TSNO=

METAR PAIL 271253Z AUTO 09013KT 10SM BKN080 OVC090 04/02 A3002 RMK AO2
     SLP167 T00440022 TSNO=

METAR PAIL 271353Z 09013KT 10SM OVC080 04/02 A3001 RMK AO2 SLP166
 T00440022=

METAR PAIL 271453Z 08014KT 10SM BKN034 OVC090 04/02 A3002 RMK AO2 SLP167
     T00440017 53001=

METAR PAIL 271553Z 08011G16KT 10SM OVC030 05/02 A3002 RMK AO2 SLP168
     T00500022=

METAR PAIL 271653Z 08015G22KT 10SM BKN031 BKN039 OVC055 05/02 A3002
 RMK AO2 SLP167 T00500017=


NOAA's National Weather Service
Alaska Aviation Weather Unit
6930 Sand Lake Road
Anchorage, AK 99502-1845
Disclaimer
Credits
Glossary
Privacy Policy
About Us
Career Opportunities
Contact AAWU Internet Services Site last modified: April, 17th 2012